sensor_id;sensor_type;location;lat;lon;timestamp;P1;durP1;ratioP1;P2;durP2;ratioP2
24567;SDS011;12731;52.182;8.716;2023-04-06T00:02:22;10.70;;;7.65;;
24567;SDS011;12731;52.182;8.716;2023-04-06T00:04:49;9.18;;;7.18;;
24567;SDS011;12731;52.182;8.716;2023-04-06T00:07:16;9.77;;;8.05;;
24567;SDS011;12731;52.182;8.716;2023-04-06T00:09:42;8.20;;;7.40;;
24567;SDS011;12731;52.182;8.716;2023-04-06T00:12:09;9.80;;;7.78;;
24567;SDS011;12731;52.182;8.716;2023-04-06T00:14:35;10.20;;;7.45;;
24567;SDS011;12731;52.182;8.716;2023-04-06T00:17:01;10.98;;;7.80;;
24567;SDS011;12731;52.182;8.716;2023-04-06T00:19:28;10.80;;;7.70;;
24567;SDS011;12731;52.182;8.716;2023-04-06T00:21:54;9.82;;;7.63;;
24567;SDS011;12731;52.182;8.716;2023-04-06T00:24:21;10.00;;;8.32;;
24567;SDS011;12731;52.182;8.716;2023-04-06T00:26:48;10.23;;;8.40;;
24567;SDS011;12731;52.182;8.716;2023-04-06T00:29:14;11.43;;;7.85;;
24567;SDS011;12731;52.182;8.716;2023-04-06T00:31:41;11.32;;;8.63;;
24567;SDS011;12731;52.182;8.716;2023-04-06T00:34:07;14.27;;;8.43;;
24567;SDS011;12731;52.182;8.716;2023-04-06T00:36:34;11.38;;;8.60;;
24567;SDS011;12731;52.182;8.716;2023-04-06T00:39:01;12.07;;;9.23;;
24567;SDS011;12731;52.182;8.716;2023-04-06T00:41:27;10.52;;;8.13;;
24567;SDS011;12731;52.182;8.716;2023-04-06T00:43:54;9.90;;;8.55;;
24567;SDS011;12731;52.182;8.716;2023-04-06T00:46:20;11.38;;;8.23;;
24567;SDS011;12731;52.182;8.716;2023-04-06T00:48:47;9.68;;;8.52;;
24567;SDS011;12731;52.182;8.716;2023-04-06T00:51:14;12.02;;;9.52;;
24567;SDS011;12731;52.182;8.716;2023-04-06T00:53:40;10.95;;;8.95;;
24567;SDS011;12731;52.182;8.716;2023-04-06T00:56:07;11.48;;;8.90;;
24567;SDS011;12731;52.182;8.716;2023-04-06T00:58:36;12.02;;;10.00;;
24567;SDS011;12731;52.182;8.716;2023-04-06T01:01:06;10.18;;;9.00;;
24567;SDS011;12731;52.182;8.716;2023-04-06T01:03:33;12.15;;;9.68;;
24567;SDS011;12731;52.182;8.716;2023-04-06T01:05:59;11.18;;;9.07;;
24567;SDS011;12731;52.182;8.716;2023-04-06T01:08:26;11.43;;;9.23;;
24567;SDS011;12731;52.182;8.716;2023-04-06T01:10:52;12.38;;;9.50;;
24567;SDS011;12731;52.182;8.716;2023-04-06T01:13:19;12.30;;;9.43;;
24567;SDS011;12731;52.182;8.716;2023-04-06T01:15:46;12.95;;;8.63;;
24567;SDS011;12731;52.182;8.716;2023-04-06T01:18:13;12.40;;;9.25;;
24567;SDS011;12731;52.182;8.716;2023-04-06T01:20:39;12.70;;;8.82;;
24567;SDS011;12731;52.182;8.716;2023-04-06T01:23:06;11.07;;;8.73;;
24567;SDS011;12731;52.182;8.716;2023-04-06T01:25:32;11.32;;;8.90;;
24567;SDS011;12731;52.182;8.716;2023-04-06T01:27:59;10.30;;;8.38;;
24567;SDS011;12731;52.182;8.716;2023-04-06T01:30:25;13.18;;;9.27;;
24567;SDS011;12731;52.182;8.716;2023-04-06T01:32:52;10.98;;;8.38;;
24567;SDS011;12731;52.182;8.716;2023-04-06T01:35:19;10.38;;;8.13;;
24567;SDS011;12731;52.182;8.716;2023-04-06T01:37:45;10.88;;;8.35;;
24567;SDS011;12731;52.182;8.716;2023-04-06T01:40:12;9.65;;;8.13;;
24567;SDS011;12731;52.182;8.716;2023-04-06T01:42:39;11.52;;;8.57;;
24567;SDS011;12731;52.182;8.716;2023-04-06T01:45:06;11.60;;;8.63;;
24567;SDS011;12731;52.182;8.716;2023-04-06T01:47:34;11.25;;;8.77;;
24567;SDS011;12731;52.182;8.716;2023-04-06T01:50:01;12.90;;;8.93;;
24567;SDS011;12731;52.182;8.716;2023-04-06T01:52:28;12.40;;;8.82;;
24567;SDS011;12731;52.182;8.716;2023-04-06T01:54:55;11.82;;;9.05;;
24567;SDS011;12731;52.182;8.716;2023-04-06T01:57:21;9.70;;;8.45;;
24567;SDS011;12731;52.182;8.716;2023-04-06T01:59:48;10.57;;;8.50;;
24567;SDS011;12731;52.182;8.716;2023-04-06T02:02:14;16.20;;;10.43;;
24567;SDS011;12731;52.182;8.716;2023-04-06T02:04:41;14.07;;;10.32;;
24567;SDS011;12731;52.182;8.716;2023-04-06T02:07:07;12.55;;;9.80;;
24567;SDS011;12731;52.182;8.716;2023-04-06T02:09:35;11.70;;;8.90;;
24567;SDS011;12731;52.182;8.716;2023-04-06T02:12:02;11.13;;;10.02;;
24567;SDS011;12731;52.182;8.716;2023-04-06T02:14:29;11.57;;;9.93;;
24567;SDS011;12731;52.182;8.716;2023-04-06T02:16:55;12.40;;;10.00;;
24567;SDS011;12731;52.182;8.716;2023-04-06T02:19:22;12.63;;;9.65;;
24567;SDS011;12731;52.182;8.716;2023-04-06T02:21:48;11.68;;;9.63;;
24567;SDS011;12731;52.182;8.716;2023-04-06T02:24:15;12.88;;;9.20;;
24567;SDS011;12731;52.182;8.716;2023-04-06T02:26:42;11.07;;;9.05;;
24567;SDS011;12731;52.182;8.716;2023-04-06T02:29:08;11.65;;;8.85;;
24567;SDS011;12731;52.182;8.716;2023-04-06T02:31:35;11.85;;;9.50;;
24567;SDS011;12731;52.182;8.716;2023-04-06T02:34:02;14.13;;;9.75;;
24567;SDS011;12731;52.182;8.716;2023-04-06T02:36:29;12.93;;;9.65;;
24567;SDS011;12731;52.182;8.716;2023-04-06T02:38:55;17.08;;;11.57;;
24567;SDS011;12731;52.182;8.716;2023-04-06T02:41:22;15.02;;;10.73;;
24567;SDS011;12731;52.182;8.716;2023-04-06T02:43:48;13.23;;;10.73;;
24567;SDS011;12731;52.182;8.716;2023-04-06T02:46:15;15.82;;;10.68;;
24567;SDS011;12731;52.182;8.716;2023-04-06T02:48:41;12.88;;;10.45;;
24567;SDS011;12731;52.182;8.716;2023-04-06T02:51:08;12.73;;;10.90;;
24567;SDS011;12731;52.182;8.716;2023-04-06T02:53:34;13.45;;;10.25;;
24567;SDS011;12731;52.182;8.716;2023-04-06T02:56:01;13.18;;;11.23;;
24567;SDS011;12731;52.182;8.716;2023-04-06T02:58:28;14.00;;;10.55;;
24567;SDS011;12731;52.182;8.716;2023-04-06T03:00:54;13.13;;;10.85;;
24567;SDS011;12731;52.182;8.716;2023-04-06T03:03:20;12.52;;;10.32;;
24567;SDS011;12731;52.182;8.716;2023-04-06T03:05:47;12.30;;;9.60;;
24567;SDS011;12731;52.182;8.716;2023-04-06T03:08:14;14.10;;;9.18;;
24567;SDS011;12731;52.182;8.716;2023-04-06T03:10:40;12.48;;;9.43;;
24567;SDS011;12731;52.182;8.716;2023-04-06T03:13:07;10.45;;;8.48;;
24567;SDS011;12731;52.182;8.716;2023-04-06T03:15:33;11.93;;;8.55;;
24567;SDS011;12731;52.182;8.716;2023-04-06T03:17:59;9.85;;;8.15;;
24567;SDS011;12731;52.182;8.716;2023-04-06T03:20:26;11.52;;;8.43;;
24567;SDS011;12731;52.182;8.716;2023-04-06T03:22:53;11.15;;;7.53;;
24567;SDS011;12731;52.182;8.716;2023-04-06T03:25:19;10.43;;;8.48;;
24567;SDS011;12731;52.182;8.716;2023-04-06T03:27:45;10.02;;;7.75;;
24567;SDS011;12731;52.182;8.716;2023-04-06T03:30:12;12.27;;;8.68;;
24567;SDS011;12731;52.182;8.716;2023-04-06T03:32:38;13.30;;;9.02;;
24567;SDS011;12731;52.182;8.716;2023-04-06T03:35:05;11.68;;;9.50;;
24567;SDS011;12731;52.182;8.716;2023-04-06T03:37:32;12.32;;;10.13;;
24567;SDS011;12731;52.182;8.716;2023-04-06T03:39:58;13.32;;;10.52;;
24567;SDS011;12731;52.182;8.716;2023-04-06T03:42:24;13.80;;;10.82;;
24567;SDS011;12731;52.182;8.716;2023-04-06T03:44:52;13.35;;;10.77;;
24567;SDS011;12731;52.182;8.716;2023-04-06T03:47:19;15.63;;;11.75;;
24567;SDS011;12731;52.182;8.716;2023-04-06T03:49:46;12.05;;;10.75;;
24567;SDS011;12731;52.182;8.716;2023-04-06T03:52:12;15.20;;;10.70;;
24567;SDS011;12731;52.182;8.716;2023-04-06T03:54:39;13.50;;;11.23;;
24567;SDS011;12731;52.182;8.716;2023-04-06T03:57:06;14.65;;;11.68;;
24567;SDS011;12731;52.182;8.716;2023-04-06T03:59:32;16.73;;;12.05;;
24567;SDS011;12731;52.182;8.716;2023-04-06T04:01:58;14.38;;;12.30;;
24567;SDS011;12731;52.182;8.716;2023-04-06T04:04:25;15.52;;;11.50;;
24567;SDS011;12731;52.182;8.716;2023-04-06T04:06:51;19.45;;;13.13;;
24567;SDS011;12731;52.182;8.716;2023-04-06T04:09:18;15.40;;;11.85;;
24567;SDS011;12731;52.182;8.716;2023-04-06T04:11:44;14.02;;;11.45;;
24567;SDS011;12731;52.182;8.716;2023-04-06T04:14:11;14.88;;;11.43;;
24567;SDS011;12731;52.182;8.716;2023-04-06T04:16:37;15.25;;;11.73;;
24567;SDS011;12731;52.182;8.716;2023-04-06T04:19:05;13.32;;;10.65;;
24567;SDS011;12731;52.182;8.716;2023-04-06T04:21:32;14.60;;;10.93;;
24567;SDS011;12731;52.182;8.716;2023-04-06T04:23:58;13.10;;;10.55;;
24567;SDS011;12731;52.182;8.716;2023-04-06T04:26:25;11.18;;;9.52;;
24567;SDS011;12731;52.182;8.716;2023-04-06T04:28:51;14.32;;;9.45;;
24567;SDS011;12731;52.182;8.716;2023-04-06T04:31:18;12.48;;;9.25;;
24567;SDS011;12731;52.182;8.716;2023-04-06T04:33:46;10.73;;;8.43;;
24567;SDS011;12731;52.182;8.716;2023-04-06T04:36:12;12.82;;;9.15;;
24567;SDS011;12731;52.182;8.716;2023-04-06T04:38:38;14.40;;;9.15;;
24567;SDS011;12731;52.182;8.716;2023-04-06T04:41:05;11.82;;;8.57;;
24567;SDS011;12731;52.182;8.716;2023-04-06T04:43:31;12.00;;;8.50;;
24567;SDS011;12731;52.182;8.716;2023-04-06T04:45:58;12.05;;;9.00;;
24567;SDS011;12731;52.182;8.716;2023-04-06T04:48:25;14.43;;;9.02;;
24567;SDS011;12731;52.182;8.716;2023-04-06T04:50:52;11.38;;;9.00;;
24567;SDS011;12731;52.182;8.716;2023-04-06T04:53:18;11.30;;;9.07;;
24567;SDS011;12731;52.182;8.716;2023-04-06T04:55:45;9.95;;;8.50;;
24567;SDS011;12731;52.182;8.716;2023-04-06T04:58:11;10.40;;;8.57;;
24567;SDS011;12731;52.182;8.716;2023-04-06T05:00:42;12.57;;;10.32;;
24567;SDS011;12731;52.182;8.716;2023-04-06T05:03:09;11.50;;;9.82;;
24567;SDS011;12731;52.182;8.716;2023-04-06T05:05:40;11.95;;;10.20;;
24567;SDS011;12731;52.182;8.716;2023-04-06T05:08:06;13.20;;;11.35;;
24567;SDS011;12731;52.182;8.716;2023-04-06T05:10:34;16.10;;;12.23;;
24567;SDS011;12731;52.182;8.716;2023-04-06T05:13:00;12.45;;;11.13;;
24567;SDS011;12731;52.182;8.716;2023-04-06T05:15:27;15.25;;;11.32;;
24567;SDS011;12731;52.182;8.716;2023-04-06T05:17:54;13.38;;;11.15;;
24567;SDS011;12731;52.182;8.716;2023-04-06T05:20:21;18.15;;;12.57;;
24567;SDS011;12731;52.182;8.716;2023-04-06T05:22:47;18.58;;;11.82;;
24567;SDS011;12731;52.182;8.716;2023-04-06T05:25:14;16.27;;;12.35;;
24567;SDS011;12731;52.182;8.716;2023-04-06T05:27:41;17.70;;;11.80;;
24567;SDS011;12731;52.182;8.716;2023-04-06T05:30:07;16.95;;;12.23;;
24567;SDS011;12731;52.182;8.716;2023-04-06T05:32:34;15.27;;;11.20;;
24567;SDS011;12731;52.182;8.716;2023-04-06T05:35:01;15.05;;;11.57;;
24567;SDS011;12731;52.182;8.716;2023-04-06T05:37:27;16.98;;;11.65;;
24567;SDS011;12731;52.182;8.716;2023-04-06T05:39:54;17.25;;;11.95;;
24567;SDS011;12731;52.182;8.716;2023-04-06T05:42:21;15.20;;;11.82;;
24567;SDS011;12731;52.182;8.716;2023-04-06T05:44:48;14.27;;;11.32;;
24567;SDS011;12731;52.182;8.716;2023-04-06T05:47:15;14.05;;;11.07;;
24567;SDS011;12731;52.182;8.716;2023-04-06T05:49:42;15.25;;;11.70;;
24567;SDS011;12731;52.182;8.716;2023-04-06T05:52:08;13.95;;;11.15;;
24567;SDS011;12731;52.182;8.716;2023-04-06T05:54:36;16.17;;;11.73;;
24567;SDS011;12731;52.182;8.716;2023-04-06T05:57:03;16.65;;;11.55;;
24567;SDS011;12731;52.182;8.716;2023-04-06T05:59:30;13.35;;;11.48;;
24567;SDS011;12731;52.182;8.716;2023-04-06T06:01:57;14.88;;;10.90;;
24567;SDS011;12731;52.182;8.716;2023-04-06T06:04:24;16.70;;;11.60;;
24567;SDS011;12731;52.182;8.716;2023-04-06T06:06:50;15.38;;;12.68;;
24567;SDS011;12731;52.182;8.716;2023-04-06T06:09:16;13.43;;;11.32;;
24567;SDS011;12731;52.182;8.716;2023-04-06T06:11:43;14.55;;;11.27;;
24567;SDS011;12731;52.182;8.716;2023-04-06T06:14:09;17.92;;;12.10;;
24567;SDS011;12731;52.182;8.716;2023-04-06T06:16:36;14.38;;;11.60;;
24567;SDS011;12731;52.182;8.716;2023-04-06T06:19:02;16.65;;;11.90;;
24567;SDS011;12731;52.182;8.716;2023-04-06T06:21:29;13.60;;;11.25;;
24567;SDS011;12731;52.182;8.716;2023-04-06T06:23:56;15.32;;;11.20;;
24567;SDS011;12731;52.182;8.716;2023-04-06T06:26:23;14.10;;;10.77;;
24567;SDS011;12731;52.182;8.716;2023-04-06T06:28:49;16.10;;;10.30;;
24567;SDS011;12731;52.182;8.716;2023-04-06T06:31:16;12.80;;;9.68;;
24567;SDS011;12731;52.182;8.716;2023-04-06T06:33:43;12.45;;;8.77;;
24567;SDS011;12731;52.182;8.716;2023-04-06T06:36:09;10.88;;;8.43;;
24567;SDS011;12731;52.182;8.716;2023-04-06T06:38:36;11.57;;;8.20;;
24567;SDS011;12731;52.182;8.716;2023-04-06T06:41:04;10.80;;;7.78;;
24567;SDS011;12731;52.182;8.716;2023-04-06T06:43:30;10.70;;;7.53;;
24567;SDS011;12731;52.182;8.716;2023-04-06T06:45:57;9.60;;;7.43;;
24567;SDS011;12731;52.182;8.716;2023-04-06T06:48:25;10.60;;;7.65;;
24567;SDS011;12731;52.182;8.716;2023-04-06T06:50:51;9.27;;;7.00;;
24567;SDS011;12731;52.182;8.716;2023-04-06T06:53:18;13.00;;;7.10;;
24567;SDS011;12731;52.182;8.716;2023-04-06T06:55:44;10.85;;;7.57;;
24567;SDS011;12731;52.182;8.716;2023-04-06T06:58:11;9.30;;;7.25;;
24567;SDS011;12731;52.182;8.716;2023-04-06T07:00:38;9.00;;;6.88;;
24567;SDS011;12731;52.182;8.716;2023-04-06T07:03:04;9.55;;;7.22;;
24567;SDS011;12731;52.182;8.716;2023-04-06T07:05:31;9.68;;;7.15;;
24567;SDS011;12731;52.182;8.716;2023-04-06T07:07:58;12.23;;;7.35;;
24567;SDS011;12731;52.182;8.716;2023-04-06T07:10:24;11.55;;;7.05;;
24567;SDS011;12731;52.182;8.716;2023-04-06T07:12:52;8.80;;;6.90;;
24567;SDS011;12731;52.182;8.716;2023-04-06T07:15:19;7.07;;;6.38;;
24567;SDS011;12731;52.182;8.716;2023-04-06T07:17:45;7.55;;;6.65;;
24567;SDS011;12731;52.182;8.716;2023-04-06T07:20:12;10.02;;;6.40;;
24567;SDS011;12731;52.182;8.716;2023-04-06T07:22:40;9.27;;;6.80;;
24567;SDS011;12731;52.182;8.716;2023-04-06T07:25:08;8.38;;;7.05;;
24567;SDS011;12731;52.182;8.716;2023-04-06T07:27:35;8.23;;;7.00;;
24567;SDS011;12731;52.182;8.716;2023-04-06T07:30:01;7.93;;;6.55;;
24567;SDS011;12731;52.182;8.716;2023-04-06T07:32:28;7.97;;;7.03;;
24567;SDS011;12731;52.182;8.716;2023-04-06T07:34:56;9.77;;;6.97;;
24567;SDS011;12731;52.182;8.716;2023-04-06T07:37:22;10.15;;;6.90;;
24567;SDS011;12731;52.182;8.716;2023-04-06T07:39:49;8.95;;;6.72;;
24567;SDS011;12731;52.182;8.716;2023-04-06T07:42:16;7.95;;;6.43;;
24567;SDS011;12731;52.182;8.716;2023-04-06T07:44:42;7.47;;;6.03;;
24567;SDS011;12731;52.182;8.716;2023-04-06T07:47:09;10.25;;;6.93;;
24567;SDS011;12731;52.182;8.716;2023-04-06T07:49:35;8.68;;;6.78;;
24567;SDS011;12731;52.182;8.716;2023-04-06T07:52:02;9.52;;;6.38;;
24567;SDS011;12731;52.182;8.716;2023-04-06T07:54:29;10.40;;;6.90;;
24567;SDS011;12731;52.182;8.716;2023-04-06T07:56:55;8.07;;;6.60;;
24567;SDS011;12731;52.182;8.716;2023-04-06T07:59:22;8.43;;;6.38;;
24567;SDS011;12731;52.182;8.716;2023-04-06T08:01:48;9.80;;;6.65;;
24567;SDS011;12731;52.182;8.716;2023-04-06T08:04:15;9.23;;;6.68;;
24567;SDS011;12731;52.182;8.716;2023-04-06T08:06:42;9.38;;;6.60;;
24567;SDS011;12731;52.182;8.716;2023-04-06T08:09:08;8.15;;;6.25;;
24567;SDS011;12731;52.182;8.716;2023-04-06T08:11:35;7.43;;;6.00;;
24567;SDS011;12731;52.182;8.716;2023-04-06T08:14:01;9.00;;;6.00;;
24567;SDS011;12731;52.182;8.716;2023-04-06T08:16:28;9.07;;;6.18;;
24567;SDS011;12731;52.182;8.716;2023-04-06T08:18:54;9.90;;;7.10;;
24567;SDS011;12731;52.182;8.716;2023-04-06T08:21:20;8.45;;;6.70;;
24567;SDS011;12731;52.182;8.716;2023-04-06T08:23:48;8.80;;;6.70;;
24567;SDS011;12731;52.182;8.716;2023-04-06T08:26:14;9.00;;;7.15;;
24567;SDS011;12731;52.182;8.716;2023-04-06T08:28:41;9.75;;;7.13;;
24567;SDS011;12731;52.182;8.716;2023-04-06T08:31:10;6.35;;;5.75;;
24567;SDS011;12731;52.182;8.716;2023-04-06T08:33:36;7.95;;;6.20;;
24567;SDS011;12731;52.182;8.716;2023-04-06T08:36:12;9.38;;;6.45;;
24567;SDS011;12731;52.182;8.716;2023-04-06T08:38:40;7.05;;;6.00;;
24567;SDS011;12731;52.182;8.716;2023-04-06T08:41:07;8.15;;;6.70;;
24567;SDS011;12731;52.182;8.716;2023-04-06T08:43:40;8.25;;;6.55;;
24567;SDS011;12731;52.182;8.716;2023-04-06T08:46:12;9.38;;;6.75;;
24567;SDS011;12731;52.182;8.716;2023-04-06T08:48:40;10.20;;;6.00;;
24567;SDS011;12731;52.182;8.716;2023-04-06T08:51:10;8.82;;;6.95;;
24567;SDS011;12731;52.182;8.716;2023-04-06T08:53:37;8.75;;;6.35;;
24567;SDS011;12731;52.182;8.716;2023-04-06T08:56:04;8.02;;;6.72;;
24567;SDS011;12731;52.182;8.716;2023-04-06T08:58:38;8.93;;;6.32;;
24567;SDS011;12731;52.182;8.716;2023-04-06T09:01:07;7.45;;;5.93;;
24567;SDS011;12731;52.182;8.716;2023-04-06T09:03:38;8.70;;;6.68;;
24567;SDS011;12731;52.182;8.716;2023-04-06T09:06:08;7.38;;;6.53;;
24567;SDS011;12731;52.182;8.716;2023-04-06T09:08:37;8.32;;;6.53;;
24567;SDS011;12731;52.182;8.716;2023-04-06T09:11:05;8.35;;;6.30;;
24567;SDS011;12731;52.182;8.716;2023-04-06T09:13:43;7.85;;;6.53;;
24567;SDS011;12731;52.182;8.716;2023-04-06T09:16:11;8.00;;;6.43;;
24567;SDS011;12731;52.182;8.716;2023-04-06T09:18:37;8.75;;;6.95;;
24567;SDS011;12731;52.182;8.716;2023-04-06T09:21:05;7.70;;;6.10;;
24567;SDS011;12731;52.182;8.716;2023-04-06T09:23:33;9.40;;;6.72;;
24567;SDS011;12731;52.182;8.716;2023-04-06T09:26:09;7.80;;;6.43;;
24567;SDS011;12731;52.182;8.716;2023-04-06T09:28:49;8.10;;;6.55;;
24567;SDS011;12731;52.182;8.716;2023-04-06T09:31:23;10.35;;;6.45;;
24567;SDS011;12731;52.182;8.716;2023-04-06T09:33:59;8.45;;;7.35;;
24567;SDS011;12731;52.182;8.716;2023-04-06T09:36:29;8.75;;;6.63;;
24567;SDS011;12731;52.182;8.716;2023-04-06T09:39:03;8.05;;;6.95;;
24567;SDS011;12731;52.182;8.716;2023-04-06T09:41:34;8.95;;;6.32;;
24567;SDS011;12731;52.182;8.716;2023-04-06T09:44:05;7.80;;;6.65;;
24567;SDS011;12731;52.182;8.716;2023-04-06T09:49:23;7.72;;;6.53;;
24567;SDS011;12731;52.182;8.716;2023-04-06T09:51:55;10.07;;;6.78;;
24567;SDS011;12731;52.182;8.716;2023-04-06T09:56:56;10.27;;;7.03;;
24567;SDS011;12731;52.182;8.716;2023-04-06T10:02:06;9.07;;;7.05;;
24567;SDS011;12731;52.182;8.716;2023-04-06T10:07:13;8.63;;;7.07;;
24567;SDS011;12731;52.182;8.716;2023-04-06T10:09:41;9.88;;;7.18;;
24567;SDS011;12731;52.182;8.716;2023-04-06T10:12:10;9.20;;;7.20;;
24567;SDS011;12731;52.182;8.716;2023-04-06T10:14:36;11.57;;;7.95;;
24567;SDS011;12731;52.182;8.716;2023-04-06T10:17:04;10.18;;;7.82;;
24567;SDS011;12731;52.182;8.716;2023-04-06T10:19:36;8.20;;;7.40;;
24567;SDS011;12731;52.182;8.716;2023-04-06T10:22:10;9.27;;;7.70;;
24567;SDS011;12731;52.182;8.716;2023-04-06T10:24:38;8.88;;;7.40;;
24567;SDS011;12731;52.182;8.716;2023-04-06T10:27:05;9.45;;;7.93;;
24567;SDS011;12731;52.182;8.716;2023-04-06T10:29:42;9.20;;;7.72;;
24567;SDS011;12731;52.182;8.716;2023-04-06T10:32:11;8.88;;;7.53;;
24567;SDS011;12731;52.182;8.716;2023-04-06T10:34:37;8.68;;;7.38;;
24567;SDS011;12731;52.182;8.716;2023-04-06T10:37:10;12.40;;;7.72;;
24567;SDS011;12731;52.182;8.716;2023-04-06T10:39:45;9.45;;;7.63;;
24567;SDS011;12731;52.182;8.716;2023-04-06T10:42:13;9.35;;;7.50;;
24567;SDS011;12731;52.182;8.716;2023-04-06T10:44:43;10.48;;;8.95;;
24567;SDS011;12731;52.182;8.716;2023-04-06T10:47:15;10.07;;;8.05;;
24567;SDS011;12731;52.182;8.716;2023-04-06T10:49:45;11.43;;;8.02;;
24567;SDS011;12731;52.182;8.716;2023-04-06T10:52:11;12.05;;;9.20;;
24567;SDS011;12731;52.182;8.716;2023-04-06T10:54:42;11.13;;;9.27;;
24567;SDS011;12731;52.182;8.716;2023-04-06T10:57:09;11.60;;;8.50;;
24567;SDS011;12731;52.182;8.716;2023-04-06T10:59:37;12.05;;;8.93;;
24567;SDS011;12731;52.182;8.716;2023-04-06T11:02:08;10.65;;;8.75;;
24567;SDS011;12731;52.182;8.716;2023-04-06T11:04:34;12.05;;;9.10;;
24567;SDS011;12731;52.182;8.716;2023-04-06T11:07:01;11.98;;;9.38;;
24567;SDS011;12731;52.182;8.716;2023-04-06T11:09:29;10.70;;;9.40;;
24567;SDS011;12731;52.182;8.716;2023-04-06T11:11:57;10.82;;;9.23;;
24567;SDS011;12731;52.182;8.716;2023-04-06T11:14:24;11.10;;;9.52;;
24567;SDS011;12731;52.182;8.716;2023-04-06T11:16:50;10.48;;;8.48;;
24567;SDS011;12731;52.182;8.716;2023-04-06T11:19:17;12.50;;;9.43;;
24567;SDS011;12731;52.182;8.716;2023-04-06T11:21:48;11.02;;;8.93;;
24567;SDS011;12731;52.182;8.716;2023-04-06T11:26:47;11.05;;;9.05;;
24567;SDS011;12731;52.182;8.716;2023-04-06T11:29:18;11.00;;;9.37;;
24567;SDS011;12731;52.182;8.716;2023-04-06T11:31:46;12.75;;;9.32;;
24567;SDS011;12731;52.182;8.716;2023-04-06T11:34:17;13.02;;;9.52;;
24567;SDS011;12731;52.182;8.716;2023-04-06T11:36:45;13.85;;;10.02;;
24567;SDS011;12731;52.182;8.716;2023-04-06T11:39:13;11.10;;;9.70;;
24567;SDS011;12731;52.182;8.716;2023-04-06T11:41:47;14.07;;;9.65;;
24567;SDS011;12731;52.182;8.716;2023-04-06T11:44:14;11.60;;;9.52;;
24567;SDS011;12731;52.182;8.716;2023-04-06T11:46:50;12.00;;;9.55;;
24567;SDS011;12731;52.182;8.716;2023-04-06T11:49:17;12.63;;;9.05;;
24567;SDS011;12731;52.182;8.716;2023-04-06T11:51:45;12.13;;;9.05;;
24567;SDS011;12731;52.182;8.716;2023-04-06T11:54:12;10.15;;;8.60;;
24567;SDS011;12731;52.182;8.716;2023-04-06T11:56:39;10.52;;;9.23;;
24567;SDS011;12731;52.182;8.716;2023-04-06T11:59:05;10.05;;;8.65;;
24567;SDS011;12731;52.182;8.716;2023-04-06T12:01:32;9.43;;;8.40;;
24567;SDS011;12731;52.182;8.716;2023-04-06T12:04:04;11.13;;;9.13;;
24567;SDS011;12731;52.182;8.716;2023-04-06T12:06:31;11.45;;;8.55;;
24567;SDS011;12731;52.182;8.716;2023-04-06T12:08:57;9.20;;;8.20;;
24567;SDS011;12731;52.182;8.716;2023-04-06T12:11:24;8.90;;;8.00;;
24567;SDS011;12731;52.182;8.716;2023-04-06T12:13:50;12.23;;;9.35;;
24567;SDS011;12731;52.182;8.716;2023-04-06T12:16:17;10.32;;;8.82;;
24567;SDS011;12731;52.182;8.716;2023-04-06T12:18:45;10.57;;;8.95;;
24567;SDS011;12731;52.182;8.716;2023-04-06T12:21:12;11.48;;;8.93;;
24567;SDS011;12731;52.182;8.716;2023-04-06T12:23:38;11.23;;;9.30;;
24567;SDS011;12731;52.182;8.716;2023-04-06T12:26:05;11.23;;;9.23;;
24567;SDS011;12731;52.182;8.716;2023-04-06T12:28:38;12.02;;;9.07;;
24567;SDS011;12731;52.182;8.716;2023-04-06T12:31:05;9.35;;;8.35;;
24567;SDS011;12731;52.182;8.716;2023-04-06T12:33:32;9.85;;;8.52;;
24567;SDS011;12731;52.182;8.716;2023-04-06T12:35:58;10.05;;;9.05;;
24567;SDS011;12731;52.182;8.716;2023-04-06T12:38:25;13.13;;;9.38;;
24567;SDS011;12731;52.182;8.716;2023-04-06T12:40:52;9.10;;;7.85;;
24567;SDS011;12731;52.182;8.716;2023-04-06T12:43:18;10.27;;;9.02;;
24567;SDS011;12731;52.182;8.716;2023-04-06T12:45:45;10.43;;;9.10;;
24567;SDS011;12731;52.182;8.716;2023-04-06T12:48:12;9.98;;;8.65;;
24567;SDS011;12731;52.182;8.716;2023-04-06T12:50:38;10.05;;;8.38;;
24567;SDS011;12731;52.182;8.716;2023-04-06T12:53:05;9.38;;;8.13;;
24567;SDS011;12731;52.182;8.716;2023-04-06T12:55:32;11.45;;;9.57;;
24567;SDS011;12731;52.182;8.716;2023-04-06T12:58:00;10.48;;;8.65;;
24567;SDS011;12731;52.182;8.716;2023-04-06T13:00:27;11.13;;;8.48;;
24567;SDS011;12731;52.182;8.716;2023-04-06T13:02:53;10.43;;;8.73;;
24567;SDS011;12731;52.182;8.716;2023-04-06T13:05:20;11.40;;;9.20;;
24567;SDS011;12731;52.182;8.716;2023-04-06T13:07:47;11.20;;;9.23;;
24567;SDS011;12731;52.182;8.716;2023-04-06T13:10:13;11.55;;;9.20;;
24567;SDS011;12731;52.182;8.716;2023-04-06T13:12:40;10.52;;;8.88;;
24567;SDS011;12731;52.182;8.716;2023-04-06T13:15:06;10.10;;;8.68;;
24567;SDS011;12731;52.182;8.716;2023-04-06T13:17:33;11.05;;;9.55;;
24567;SDS011;12731;52.182;8.716;2023-04-06T13:20:00;10.10;;;8.88;;
24567;SDS011;12731;52.182;8.716;2023-04-06T13:22:26;12.07;;;9.48;;
24567;SDS011;12731;52.182;8.716;2023-04-06T13:24:53;10.40;;;9.40;;
24567;SDS011;12731;52.182;8.716;2023-04-06T13:27:19;11.20;;;9.93;;
24567;SDS011;12731;52.182;8.716;2023-04-06T13:29:46;11.48;;;9.20;;
24567;SDS011;12731;52.182;8.716;2023-04-06T13:32:12;11.20;;;8.68;;
24567;SDS011;12731;52.182;8.716;2023-04-06T13:34:39;11.15;;;8.35;;
24567;SDS011;12731;52.182;8.716;2023-04-06T13:37:11;10.13;;;8.95;;
24567;SDS011;12731;52.182;8.716;2023-04-06T13:39:39;13.43;;;9.18;;
24567;SDS011;12731;52.182;8.716;2023-04-06T13:42:06;9.98;;;7.90;;
24567;SDS011;12731;52.182;8.716;2023-04-06T13:44:33;11.43;;;8.93;;
24567;SDS011;12731;52.182;8.716;2023-04-06T13:46:59;11.25;;;8.30;;
24567;SDS011;12731;52.182;8.716;2023-04-06T13:49:25;9.65;;;8.25;;
24567;SDS011;12731;52.182;8.716;2023-04-06T13:51:52;10.73;;;8.18;;
24567;SDS011;12731;52.182;8.716;2023-04-06T13:54:19;8.57;;;7.45;;
24567;SDS011;12731;52.182;8.716;2023-04-06T13:56:46;11.32;;;8.48;;
24567;SDS011;12731;52.182;8.716;2023-04-06T13:59:13;10.45;;;8.20;;
24567;SDS011;12731;52.182;8.716;2023-04-06T14:01:39;11.10;;;8.02;;
24567;SDS011;12731;52.182;8.716;2023-04-06T14:04:06;12.52;;;9.75;;
24567;SDS011;12731;52.182;8.716;2023-04-06T14:06:33;11.73;;;8.95;;
24567;SDS011;12731;52.182;8.716;2023-04-06T14:08:59;12.18;;;7.47;;
24567;SDS011;12731;52.182;8.716;2023-04-06T14:11:26;10.65;;;8.07;;
24567;SDS011;12731;52.182;8.716;2023-04-06T14:13:53;10.77;;;7.30;;
24567;SDS011;12731;52.182;8.716;2023-04-06T14:16:23;9.18;;;7.30;;
24567;SDS011;12731;52.182;8.716;2023-04-06T14:18:49;10.70;;;7.55;;
24567;SDS011;12731;52.182;8.716;2023-04-06T14:21:16;10.88;;;7.53;;
24567;SDS011;12731;52.182;8.716;2023-04-06T14:23:44;10.05;;;8.32;;
24567;SDS011;12731;52.182;8.716;2023-04-06T14:26:12;10.60;;;9.05;;
24567;SDS011;12731;52.182;8.716;2023-04-06T14:28:39;11.35;;;9.45;;
24567;SDS011;12731;52.182;8.716;2023-04-06T14:31:10;14.00;;;9.73;;
24567;SDS011;12731;52.182;8.716;2023-04-06T14:33:39;11.77;;;8.45;;
24567;SDS011;12731;52.182;8.716;2023-04-06T14:36:06;13.85;;;9.52;;
24567;SDS011;12731;52.182;8.716;2023-04-06T14:38:33;12.02;;;9.40;;
24567;SDS011;12731;52.182;8.716;2023-04-06T14:41:00;12.73;;;9.23;;
24567;SDS011;12731;52.182;8.716;2023-04-06T14:43:27;10.50;;;8.98;;
24567;SDS011;12731;52.182;8.716;2023-04-06T14:45:53;11.10;;;8.75;;
24567;SDS011;12731;52.182;8.716;2023-04-06T14:48:20;12.30;;;8.98;;
24567;SDS011;12731;52.182;8.716;2023-04-06T14:50:53;11.48;;;8.90;;